createdAt,value
2019-01-15T00:00:54.553Z,25.03
2019-01-15T00:03:23.941Z,20.23
2019-01-15T00:05:53.309Z,19.90
2019-01-15T00:08:22.625Z,15.70
2019-01-15T00:10:52.019Z,13.00
2019-01-15T00:13:21.391Z,18.70
2019-01-15T00:15:50.759Z,13.43
2019-01-15T00:18:20.078Z,16.90
2019-01-15T00:20:49.422Z,15.37
2019-01-15T00:23:18.770Z,16.97
2019-01-15T00:25:48.144Z,14.00
2019-01-15T00:28:17.598Z,13.80
2019-01-15T00:30:46.952Z,14.20
2019-01-15T00:33:16.367Z,16.83
2019-01-15T00:35:45.739Z,15.33
2019-01-15T00:38:15.081Z,10.47
2019-01-15T00:40:44.393Z,16.47
2019-01-15T00:43:13.767Z,9.83
2019-01-15T00:45:43.127Z,14.23
2019-01-15T00:48:12.529Z,17.97
2019-01-15T00:50:41.859Z,13.10
2019-01-15T00:53:11.236Z,17.07
2019-01-15T00:55:40.578Z,18.33
2019-01-15T00:58:09.961Z,16.63
2019-01-15T01:00:39.261Z,16.90
2019-01-15T01:03:08.622Z,23.17
2019-01-15T01:05:37.953Z,15.97
2019-01-15T01:08:07.408Z,22.97
2019-01-15T01:10:36.776Z,21.77
2019-01-15T01:13:06.141Z,20.40
2019-01-15T01:15:35.572Z,23.97
2019-01-15T01:18:04.997Z,20.43
2019-01-15T01:20:34.924Z,18.00
2019-01-15T01:23:04.411Z,17.93
2019-01-15T01:25:33.808Z,22.40
2019-01-15T01:28:03.184Z,23.30
2019-01-15T01:30:32.582Z,21.27
2019-01-15T01:33:01.936Z,22.57
2019-01-15T01:35:31.374Z,18.27
2019-01-15T01:38:00.715Z,20.73
2019-01-15T01:40:30.144Z,25.30
2019-01-15T01:42:59.591Z,26.83
2019-01-15T01:45:29.069Z,29.40
2019-01-15T01:47:58.417Z,25.97
2019-01-15T01:50:27.779Z,29.43
2019-01-15T01:52:57.139Z,27.10
2019-01-15T01:55:28.208Z,21.77
2019-01-15T01:57:57.552Z,26.03
2019-01-15T02:00:26.983Z,22.43
2019-01-15T02:02:56.413Z,23.40
2019-01-15T02:05:25.758Z,22.17
2019-01-15T02:07:55.240Z,20.50
2019-01-15T02:10:24.640Z,18.17
2019-01-15T02:12:55.828Z,24.53
2019-01-15T02:15:25.791Z,21.10
2019-01-15T02:17:55.321Z,20.20
2019-01-15T02:20:24.855Z,21.90
2019-01-15T02:22:54.249Z,20.73
2019-01-15T02:25:23.663Z,21.37
2019-01-15T02:27:54.422Z,17.77
2019-01-15T02:30:25.823Z,17.53
2019-01-15T02:32:55.208Z,19.07
2019-01-15T02:35:24.546Z,21.47
2019-01-15T02:37:53.922Z,17.00
2019-01-15T02:40:23.342Z,16.10
2019-01-15T02:42:52.838Z,17.83
2019-01-15T02:45:22.793Z,18.97
2019-01-15T02:47:52.427Z,18.30
2019-01-15T02:50:22.871Z,16.80
2019-01-15T02:52:52.423Z,17.53
2019-01-15T02:55:21.775Z,17.10
2019-01-15T02:57:51.484Z,15.97
2019-01-15T03:00:22.993Z,17.10
2019-01-15T03:02:52.440Z,13.80
2019-01-15T03:05:22.366Z,14.83
2019-01-15T03:07:52.155Z,16.17
2019-01-15T03:10:22.258Z,13.67
2019-01-15T03:12:56.767Z,15.87
2019-01-15T03:15:24.878Z,16.70
2019-01-15T03:17:54.647Z,23.20
2019-01-15T03:20:24.289Z,13.37
2019-01-15T03:22:54.102Z,18.20
2019-01-15T03:25:23.619Z,14.03
2019-01-15T03:27:53.378Z,16.10
2019-01-15T03:30:24.554Z,17.87
2019-01-15T03:32:54.407Z,16.73
2019-01-15T03:35:24.308Z,15.83
2019-01-15T03:37:53.799Z,17.53
2019-01-15T03:40:27.484Z,16.40
2019-01-15T03:43:03.291Z,13.93
2019-01-15T03:45:28.443Z,12.40
2019-01-15T03:47:58.063Z,16.77
2019-01-15T03:50:27.960Z,19.40
2019-01-15T03:52:57.619Z,17.90
2019-01-15T03:55:27.249Z,19.57
2019-01-15T03:57:56.985Z,17.93
2019-01-15T04:00:26.941Z,20.00
2019-01-15T04:02:57.435Z,15.33
2019-01-15T04:05:26.881Z,19.73
2019-01-15T04:07:58.069Z,15.73
2019-01-15T04:10:27.702Z,21.23
2019-01-15T04:12:57.656Z,19.03
2019-01-15T04:15:27.559Z,19.70
2019-01-15T04:17:56.962Z,19.90
2019-01-15T04:20:26.757Z,21.67
2019-01-15T04:22:59.460Z,16.93
2019-01-15T04:25:29.097Z,20.27
2019-01-15T04:27:58.750Z,14.93
2019-01-15T04:30:28.375Z,20.83
2019-01-15T04:32:58.076Z,15.17
2019-01-15T04:35:27.692Z,21.27
2019-01-15T04:37:57.377Z,18.07
2019-01-15T04:40:26.706Z,19.63
2019-01-15T04:42:56.353Z,17.70
2019-01-15T04:45:25.868Z,20.50
2019-01-15T04:47:55.192Z,15.77
2019-01-15T04:50:24.615Z,19.90
2019-01-15T04:53:12.278Z,18.87
2019-01-15T04:55:41.597Z,19.93
2019-01-15T04:58:11.154Z,20.60
2019-01-15T05:00:40.443Z,17.60
2019-01-15T05:03:11.758Z,19.87
2019-01-15T05:05:41.157Z,19.27
2019-01-15T05:08:10.689Z,18.23
2019-01-15T05:10:40.038Z,16.63
2019-01-15T05:13:09.674Z,18.43
2019-01-15T05:15:39.136Z,23.23
2019-01-15T05:18:08.616Z,22.13
2019-01-15T05:20:37.994Z,18.43
2019-01-15T05:23:07.404Z,20.93
2019-01-15T05:25:36.795Z,18.07
2019-01-15T05:28:06.194Z,22.37
2019-01-15T05:30:35.520Z,21.50
2019-01-15T05:33:04.948Z,29.20
2019-01-15T05:35:34.459Z,26.17
2019-01-15T05:38:03.892Z,28.70
2019-01-15T05:40:33.275Z,25.70
2019-01-15T05:43:02.600Z,25.37
2019-01-15T05:45:37.075Z,31.20
2019-01-15T05:48:09.556Z,25.60
2019-01-15T05:50:43.682Z,27.70
2019-01-15T05:53:13.344Z,31.80
2019-01-15T05:55:42.934Z,29.53
2019-01-15T05:58:12.564Z,32.47
2019-01-15T06:00:42.206Z,31.93
2019-01-15T06:03:11.640Z,28.73
2019-01-15T06:05:41.287Z,35.13
2019-01-15T06:08:10.795Z,29.83
2019-01-15T06:10:40.442Z,30.37
2019-01-15T06:13:09.931Z,28.70
2019-01-15T06:15:39.654Z,29.50
2019-01-15T06:18:09.135Z,22.43
2019-01-15T06:20:38.725Z,22.47
2019-01-15T06:23:08.129Z,25.60
2019-01-15T06:25:37.559Z,28.43
2019-01-15T06:28:06.954Z,25.73
2019-01-15T06:30:36.382Z,19.60
2019-01-15T06:33:06.020Z,23.43
2019-01-15T06:35:35.554Z,17.53
2019-01-15T06:38:05.286Z,22.10
2019-01-15T06:40:34.783Z,20.90
2019-01-15T06:43:06.007Z,23.60
2019-01-15T06:45:35.500Z,21.30
2019-01-15T06:48:04.928Z,21.87
2019-01-15T06:50:34.358Z,23.77
2019-01-15T06:53:04.040Z,23.13
2019-01-15T06:55:33.623Z,20.93
2019-01-15T06:58:03.297Z,20.17
2019-01-15T07:00:32.791Z,20.20
2019-01-15T07:03:02.337Z,19.03
2019-01-15T07:05:31.666Z,20.00
2019-01-15T07:08:01.171Z,19.53
2019-01-15T07:10:36.155Z,21.53
2019-01-15T07:13:06.040Z,23.53
2019-01-15T07:15:35.455Z,19.70
2019-01-15T07:18:05.203Z,20.60
2019-01-15T07:20:34.879Z,19.37
2019-01-15T07:23:04.274Z,16.33
2019-01-15T07:25:33.729Z,20.77
2019-01-15T07:28:03.318Z,18.70
2019-01-15T07:30:36.109Z,24.23
2019-01-15T07:33:06.297Z,25.80
2019-01-15T07:35:35.855Z,26.23
2019-01-15T07:38:05.754Z,22.67
2019-01-15T07:40:35.440Z,20.93
2019-01-15T07:43:05.075Z,23.23
2019-01-15T07:45:34.974Z,22.43
2019-01-15T07:48:04.552Z,26.80
2019-01-15T07:50:34.217Z,23.87
2019-01-15T07:53:04.610Z,19.07
2019-01-15T07:55:36.793Z,21.93
2019-01-15T07:58:06.495Z,24.03
2019-01-15T08:00:36.016Z,23.33
2019-01-15T08:03:05.818Z,20.63
2019-01-15T08:05:37.450Z,23.90
2019-01-15T08:08:07.372Z,22.20
2019-01-15T08:10:37.049Z,27.53
2019-01-15T08:13:06.764Z,30.87
2019-01-15T08:15:36.397Z,21.37
2019-01-15T08:18:06.125Z,27.27
2019-01-15T08:20:36.078Z,24.53
2019-01-15T08:23:05.722Z,26.90
2019-01-15T08:25:35.408Z,31.17
2019-01-15T08:28:05.334Z,28.30
2019-01-15T08:30:36.984Z,25.13
2019-01-15T08:33:07.052Z,26.57
2019-01-15T08:35:36.870Z,35.53
2019-01-15T08:38:06.610Z,24.17
2019-01-15T08:40:36.240Z,25.20
2019-01-15T08:43:05.690Z,26.43
2019-01-15T08:45:35.308Z,26.57
2019-01-15T08:48:16.768Z,26.63
2019-01-15T08:50:48.229Z,27.97
2019-01-15T08:53:20.986Z,29.60
2019-01-15T08:55:52.416Z,29.37
2019-01-15T08:58:22.443Z,34.93
2019-01-15T09:00:52.115Z,37.63
2019-01-15T09:03:21.820Z,32.77
2019-01-15T09:05:51.677Z,35.10
2019-01-15T09:08:21.417Z,37.23
2019-01-15T09:10:52.701Z,32.90
2019-01-15T09:13:24.948Z,35.10
2019-01-15T09:15:54.842Z,32.00
2019-01-15T09:18:24.431Z,35.20
2019-01-15T09:20:55.601Z,30.93
2019-01-15T09:23:25.144Z,31.67
2019-01-15T09:25:55.115Z,32.17
2019-01-15T09:28:24.945Z,35.70
2019-01-15T09:30:54.852Z,31.37
2019-01-15T09:33:24.427Z,29.13
2019-01-15T09:35:54.159Z,25.73
2019-01-15T09:38:23.899Z,35.27
2019-01-15T09:40:53.659Z,36.80
2019-01-15T09:43:24.452Z,32.73
2019-01-15T09:45:54.402Z,32.60
2019-01-15T09:48:35.295Z,30.50
2019-01-15T09:51:05.061Z,26.17
2019-01-15T09:53:35.534Z,29.60
2019-01-15T09:56:05.230Z,35.77
2019-01-15T09:58:34.850Z,27.97
2019-01-15T10:01:04.419Z,30.47
2019-01-15T10:03:33.983Z,27.27
2019-01-15T10:06:03.594Z,27.33
2019-01-15T10:08:33.073Z,28.50
2019-01-15T10:11:02.633Z,27.37
2019-01-15T10:13:32.035Z,26.60
2019-01-15T10:16:01.849Z,23.17
2019-01-15T10:18:31.555Z,25.00
2019-01-15T10:21:01.157Z,26.60
2019-01-15T10:23:30.725Z,25.90
2019-01-15T10:26:00.708Z,31.07
2019-01-15T10:28:30.348Z,29.20
2019-01-15T10:31:29.873Z,27.83
2019-01-15T10:34:07.327Z,25.07
2019-01-15T10:36:35.242Z,25.87
2019-01-15T10:39:12.632Z,27.67
2019-01-15T10:41:42.367Z,27.90
2019-01-15T10:44:12.028Z,22.53
2019-01-15T10:46:41.841Z,27.00
2019-01-15T10:49:11.602Z,31.70
2019-01-15T10:51:41.367Z,23.93
2019-01-15T10:54:11.153Z,22.10
2019-01-15T10:56:43.175Z,21.90
2019-01-15T10:59:12.799Z,18.60
2019-01-15T11:01:42.579Z,20.27
2019-01-15T11:04:12.288Z,19.00
2019-01-15T11:06:41.887Z,23.00
2019-01-15T11:09:11.648Z,17.67
2019-01-15T11:11:41.229Z,21.27
2019-01-15T11:14:14.597Z,18.27
2019-01-15T11:16:44.252Z,18.40
2019-01-15T11:19:13.773Z,19.10
2019-01-15T11:21:45.518Z,14.47
2019-01-15T11:24:15.011Z,19.33
2019-01-15T11:26:44.598Z,19.73
2019-01-15T11:29:15.438Z,12.17
2019-01-15T11:31:45.000Z,17.23
2019-01-15T11:34:18.960Z,16.60
2019-01-15T11:36:48.915Z,15.13
2019-01-15T11:39:18.671Z,18.60
2019-01-15T11:41:48.385Z,20.17
2019-01-15T11:44:18.223Z,13.50
2019-01-15T11:46:48.020Z,14.20
2019-01-15T11:49:18.056Z,14.23
2019-01-15T11:51:47.661Z,13.43
2019-01-15T11:54:17.356Z,15.87
2019-01-15T11:56:46.995Z,13.70
2019-01-15T11:59:17.061Z,13.03
2019-01-15T12:01:51.016Z,12.67
2019-01-15T12:04:48.427Z,11.83
2019-01-15T12:07:51.972Z,12.33
2019-01-15T12:10:39.085Z,15.50
2019-01-15T12:13:26.135Z,8.93
2019-01-15T12:16:19.195Z,15.83
2019-01-15T12:18:57.193Z,10.63
2019-01-15T12:22:00.824Z,12.50
2019-01-15T12:24:44.767Z,11.43
2019-01-15T12:27:38.393Z,12.23
2019-01-15T12:30:31.912Z,11.27
2019-01-15T12:33:18.904Z,13.60
2019-01-15T12:36:15.972Z,10.13
2019-01-15T12:39:02.948Z,13.20
2019-01-15T12:41:54.252Z,8.93
2019-01-15T12:44:40.940Z,9.50
2019-01-15T12:47:29.147Z,12.77
2019-01-15T12:50:20.700Z,8.53
2019-01-15T12:53:14.760Z,11.07
2019-01-15T12:56:03.022Z,8.17
2019-01-15T12:59:03.148Z,12.63
2019-01-15T13:01:41.129Z,9.83
2019-01-15T13:04:32.207Z,10.40
2019-01-15T13:07:23.307Z,12.73
2019-01-15T13:10:10.331Z,14.93
2019-01-15T13:12:52.247Z,14.43
2019-01-15T13:15:46.699Z,9.37
2019-01-15T13:18:43.864Z,10.00
2019-01-15T13:21:30.503Z,8.50
2019-01-15T13:24:21.791Z,12.83
2019-01-15T13:27:24.928Z,11.17
2019-01-15T13:30:11.256Z,10.97
2019-01-15T13:33:02.291Z,10.57
2019-01-15T13:35:53.597Z,9.63
2019-01-15T13:38:41.923Z,9.77
2019-01-15T13:41:30.182Z,12.70
2019-01-15T13:44:20.125Z,12.03
2019-01-15T13:47:07.748Z,12.83
2019-01-15T13:49:59.304Z,9.70
2019-01-15T13:52:45.913Z,10.40
2019-01-15T13:55:30.135Z,11.07
2019-01-15T13:58:23.521Z,9.70
2019-01-15T14:01:20.675Z,7.67
2019-01-15T14:04:06.954Z,10.50
2019-01-15T14:06:58.265Z,8.27
2019-01-15T14:09:49.607Z,8.37
2019-01-15T14:12:40.673Z,10.27
2019-01-15T14:15:28.932Z,9.90
2019-01-15T14:18:17.190Z,14.60
2019-01-15T14:21:04.071Z,13.40
2019-01-15T14:23:45.326Z,13.47
2019-01-15T14:26:42.387Z,14.03
2019-01-15T14:29:36.766Z,8.60
2019-01-15T14:32:21.043Z,18.70
2019-01-15T14:35:22.309Z,10.70
2019-01-15T14:38:13.416Z,11.90
2019-01-15T14:41:16.889Z,11.40
2019-01-15T14:44:05.232Z,17.10
2019-01-15T14:46:52.231Z,11.83
2019-01-15T14:49:52.513Z,7.30
2019-01-15T14:52:30.578Z,13.90
2019-01-15T14:55:17.246Z,14.80
2019-01-15T14:58:11.273Z,13.73
2019-01-15T15:00:58.189Z,9.57
2019-01-15T15:03:56.186Z,12.17
2019-01-15T15:06:50.529Z,7.80
2019-01-15T15:09:50.682Z,8.20
2019-01-15T15:12:38.988Z,13.77
2019-01-15T15:15:26.819Z,9.60
2019-01-15T15:18:17.874Z,10.43
2019-01-15T15:21:18.419Z,11.60
2019-01-15T15:24:21.778Z,10.77
2019-01-15T15:27:00.317Z,9.33
2019-01-15T15:29:42.531Z,9.90
2019-01-15T15:32:30.867Z,11.97
2019-01-15T15:35:19.144Z,8.93
2019-01-15T15:38:19.324Z,12.77
2019-01-15T15:41:06.226Z,11.77
2019-01-15T15:43:47.204Z,10.90
2019-01-15T15:46:33.936Z,14.50
2019-01-15T15:49:25.007Z,13.33
2019-01-15T15:52:15.209Z,9.20
2019-01-15T15:55:01.937Z,15.10
2019-01-15T15:57:52.988Z,8.67
2019-01-15T16:00:39.889Z,10.00
2019-01-15T16:03:26.805Z,8.67
2019-01-15T16:06:17.864Z,8.70
2019-01-15T16:09:04.704Z,9.60
2019-01-15T16:11:51.315Z,10.53
2019-01-15T16:14:33.205Z,7.97
2019-01-15T16:17:27.552Z,14.80
2019-01-15T16:20:14.312Z,5.43
2019-01-15T16:23:11.412Z,10.63
2019-01-15T16:26:03.327Z,10.40
2019-01-15T16:28:50.313Z,8.20
2019-01-15T16:31:44.376Z,14.93
2019-01-15T16:34:28.406Z,8.97
2019-01-15T16:37:22.560Z,11.33
2019-01-15T16:40:01.020Z,8.30
2019-01-15T16:43:04.210Z,11.73
2019-01-15T16:45:58.503Z,9.43
2019-01-15T16:48:45.398Z,8.87
2019-01-15T16:51:42.673Z,10.90
2019-01-15T16:54:25.604Z,12.17
2019-01-15T16:57:26.143Z,22.03
2019-01-15T17:00:13.401Z,15.50
2019-01-15T17:03:19.548Z,18.73
2019-01-15T17:06:07.823Z,22.87
2019-01-15T17:09:06.134Z,21.03
2019-01-15T17:11:44.692Z,19.10
2019-01-15T17:14:47.864Z,17.83
2019-01-15T17:17:54.348Z,14.97
2019-01-15T17:20:41.049Z,20.13
2019-01-15T17:23:29.767Z,16.83
2019-01-15T17:26:13.544Z,13.13
2019-01-15T17:28:58.433Z,14.10
2019-01-15T17:31:56.528Z,9.97
2019-01-15T17:34:53.723Z,8.67
2019-01-15T17:37:40.682Z,13.53
2019-01-15T17:40:41.468Z,9.07
2019-01-15T17:43:29.752Z,18.67
2019-01-15T17:46:20.779Z,11.30
2019-01-15T17:49:14.950Z,12.80
2019-01-15T17:51:57.293Z,11.70
2019-01-15T17:54:51.393Z,9.43
2019-01-15T17:57:36.728Z,9.73
2019-01-15T18:00:30.524Z,9.87
2019-01-15T18:03:18.878Z,8.37
2019-01-15T18:06:22.384Z,7.97
2019-01-15T18:09:10.686Z,9.17
2019-01-15T18:11:57.425Z,10.43
2019-01-15T18:14:44.056Z,8.90
2019-01-15T18:17:23.267Z,9.40
2019-01-15T18:20:09.987Z,9.43
2019-01-15T18:22:56.663Z,11.87
2019-01-15T18:25:44.981Z,10.27
2019-01-15T18:28:42.078Z,9.97
2019-01-15T18:31:40.598Z,8.87
2019-01-15T18:34:28.899Z,9.63
2019-01-15T18:37:19.782Z,8.80
2019-01-15T18:40:08.110Z,9.90
2019-01-15T18:42:54.859Z,9.80
2019-01-15T18:45:37.181Z,6.13
2019-01-15T18:48:31.671Z,7.53
2019-01-15T18:51:18.712Z,7.73
2019-01-15T18:54:05.411Z,9.20
2019-01-15T18:56:55.812Z,9.87
2019-01-15T18:59:47.090Z,10.00
2019-01-15T19:02:35.388Z,12.00
2019-01-15T19:05:43.192Z,8.87
2019-01-15T19:08:31.556Z,11.30
2019-01-15T19:11:14.553Z,7.97
2019-01-15T19:14:01.490Z,9.87
2019-01-15T19:16:48.198Z,9.43
2019-01-15T19:19:35.412Z,9.73
2019-01-15T19:22:33.948Z,11.20
2019-01-15T19:25:20.957Z,10.83
2019-01-15T19:27:57.864Z,9.97
2019-01-15T19:30:51.886Z,12.03
2019-01-15T19:33:40.205Z,7.60
2019-01-15T19:36:20.556Z,10.87
2019-01-15T19:39:17.704Z,10.10
2019-01-15T19:42:08.813Z,11.50
2019-01-15T19:45:19.564Z,8.23
2019-01-15T19:48:05.762Z,9.77
2019-01-15T19:50:54.053Z,8.53
2019-01-15T19:53:57.753Z,9.70
2019-01-15T19:56:49.034Z,9.67
2019-01-15T19:59:43.149Z,11.60
2019-01-15T20:02:31.516Z,9.77
2019-01-15T20:05:14.796Z,10.70
2019-01-15T20:08:01.530Z,7.97
2019-01-15T20:10:43.833Z,9.50
2019-01-15T20:13:32.370Z,8.03
2019-01-15T20:16:16.233Z,9.60
2019-01-15T20:19:13.865Z,7.63
2019-01-15T20:22:00.597Z,12.80
2019-01-15T20:24:52.222Z,8.77
2019-01-15T20:27:39.322Z,12.97
2019-01-15T20:30:38.101Z,7.83
2019-01-15T20:33:14.207Z,7.30
2019-01-15T20:35:56.267Z,9.17
2019-01-15T20:38:47.574Z,8.33
2019-01-15T20:41:38.643Z,10.57
2019-01-15T20:44:30.183Z,10.73
2019-01-15T20:47:30.323Z,9.90
2019-01-15T20:50:16.529Z,9.53
2019-01-15T20:53:04.325Z,10.37
2019-01-15T20:55:58.420Z,8.13
2019-01-15T20:58:50.920Z,11.60
2019-01-15T21:01:42.396Z,9.23
2019-01-15T21:04:28.557Z,11.40
2019-01-15T21:07:11.561Z,9.23
2019-01-15T21:10:02.867Z,9.70
2019-01-15T21:12:56.946Z,13.07
2019-01-15T21:15:45.256Z,9.33
2019-01-15T21:18:32.324Z,9.50
2019-01-15T21:21:24.212Z,11.43
2019-01-15T21:24:10.927Z,11.23
2019-01-15T21:26:57.867Z,13.30
2019-01-15T21:29:40.075Z,10.80
2019-01-15T21:32:27.100Z,11.67
2019-01-15T21:35:18.573Z,9.40
2019-01-15T21:38:09.699Z,10.30
2019-01-15T21:40:58.070Z,9.93
2019-01-15T21:43:49.200Z,7.53
2019-01-15T21:46:37.448Z,8.40
2019-01-15T21:49:25.734Z,8.10
2019-01-15T21:52:22.925Z,8.77
2019-01-15T21:55:19.499Z,9.70
2019-01-15T21:58:10.667Z,10.27
2019-01-15T22:01:01.924Z,8.50
2019-01-15T22:03:48.669Z,7.10
2019-01-15T22:06:39.823Z,8.07
2019-01-15T22:09:26.888Z,7.33
2019-01-15T22:12:13.625Z,8.40
2019-01-15T22:15:02.015Z,10.27
2019-01-15T22:17:47.592Z,6.90
2019-01-15T22:20:38.254Z,7.67
2019-01-15T22:23:29.524Z,5.97
2019-01-15T22:26:16.507Z,6.00
2019-01-15T22:28:59.259Z,7.47
2019-01-15T22:31:46.383Z,5.97
2019-01-15T22:34:31.763Z,9.07
2019-01-15T22:37:30.622Z,7.17
2019-01-15T22:40:17.478Z,8.50
2019-01-15T22:43:04.439Z,7.27
2019-01-15T22:45:55.754Z,6.67
2019-01-15T22:48:35.374Z,9.73
2019-01-15T22:51:22.416Z,7.23
2019-01-15T22:54:20.218Z,6.57
2019-01-15T22:57:06.628Z,6.30
2019-01-15T22:59:54.900Z,7.87
2019-01-15T23:02:43.180Z,10.10
2019-01-15T23:05:25.839Z,9.33
2019-01-15T23:08:05.020Z,10.37
2019-01-15T23:10:51.721Z,7.07
2019-01-15T23:13:40.080Z,8.37
2019-01-15T23:16:24.310Z,8.07
2019-01-15T23:19:10.886Z,9.63
2019-01-15T23:22:05.178Z,9.30
2019-01-15T23:24:49.483Z,8.30
2019-01-15T23:27:41.612Z,9.13
2019-01-15T23:30:51.218Z,8.43
2019-01-15T23:33:37.711Z,6.63
2019-01-15T23:36:18.956Z,9.93
2019-01-15T23:39:05.931Z,6.90
2019-01-15T23:41:52.558Z,7.93
2019-01-15T23:44:46.808Z,8.30
2019-01-15T23:47:35.134Z,9.00
2019-01-15T23:50:20.602Z,7.63
2019-01-15T23:53:20.897Z,6.70
2019-01-15T23:56:10.364Z,7.77
2019-01-15T23:58:50.925Z,7.23
